Saint-Lin, Canada
Current Conditions -  °F | °C
As of 5:00 AM on Thursday 27 Nov 2014 (Local Time) from CYMX Reporting Station
Overcast Overcast  
Wind Chill: -6°   Ceiling: 16000
Heat Index: -3°   Visibility: 25mi
Dew Point: -9°   Wind: 5mph
Humidity: 64%   Direction: 10°N
Pressure: 30.01"   Gusts: NA
Location:  45.85°N, 73.77°W
Report Text: CYMX 271000Z 01004KT 25SM FEW035 BKN160 OVC250 M03/M09 A3001 RMK SC1AS4CI3 SLP167
Loading
Personal Weather Stations






























Interactive Weather Map New forecast layout! Learn more

10-Day Weather Forecast

Advertisements
Track Severe Weather on mobile